Time;durP1;ratioP1;P1;durP2;ratioP2;P2;SDS_P1;SDS_P2;PMS_P1;PMS_P2;Temp;Humidity;BMP_temperature;BMP_pressure;BME280_temperature;BME280_humidity;BME280_pressure;Samples;Min_cycle;Max_cycle;Signal;HPM_P1;HPM_P2
2022/04/04 00:00:09;;;;;;;7.72;3.47;;;;;;;0.70;87.97;101853.19;5049435;28;20043;-67
2022/04/04 00:02:34;;;;;;;6.60;3.28;;;;;;;0.68;87.93;101844.56;5049381;28;20031;-67
2022/04/04 00:05:01;;;;;;;11.40;4.95;;;;;;;0.69;88.21;101848.91;5049019;28;20025;-67
2022/04/04 00:07:27;;;;;;;8.55;4.53;;;;;;;0.67;88.24;101840.28;5049152;28;20496;-67
2022/04/04 00:09:52;;;;;;;9.43;4.05;;;;;;;0.68;88.15;101849.00;5048861;28;20056;-67
2022/04/04 00:12:18;;;;;;;8.90;4.20;;;;;;;0.66;88.13;101838.63;5049092;28;20415;-67
2022/04/04 00:14:43;;;;;;;12.55;4.75;;;;;;;0.64;88.03;101830.00;5048235;28;20035;-67
2022/04/04 00:17:09;;;;;;;9.52;5.20;;;;;;;0.63;88.18;101839.66;5049069;28;20534;-67
2022/04/04 00:19:35;;;;;;;10.13;4.28;;;;;;;0.59;88.04;101825.06;5049067;28;20116;-67
2022/04/04 00:22:00;;;;;;;12.63;5.43;;;;;;;0.57;88.30;101823.50;5049058;28;20123;-67
2022/04/04 00:24:26;;;;;;;8.23;4.53;;;;;;;0.60;88.28;101823.28;5047778;28;20033;-67
2022/04/04 00:26:52;;;;;;;11.43;5.07;;;;;;;0.55;88.41;101813.13;5048920;28;20029;-67
2022/04/04 00:29:18;;;;;;;15.48;6.55;;;;;;;0.59;88.27;101819.81;5049012;28;20024;-67
2022/04/04 00:31:44;;;;;;;11.10;6.25;;;;;;;0.58;88.56;101812.06;5049116;28;20025;-67
2022/04/04 00:34:09;;;;;;;10.27;6.35;;;;;;;0.54;88.35;101806.19;5048956;28;20032;-67
2022/04/04 00:36:35;;;;;;;12.77;5.93;;;;;;;0.57;88.21;101811.22;5047875;28;20043;-67
2022/04/04 00:39:00;;;;;;;18.38;8.23;;;;;;;0.54;88.55;101800.09;5048584;28;20135;-67
2022/04/04 00:41:26;;;;;;;13.02;7.10;;;;;;;0.56;88.49;101792.97;5048713;28;20033;-67
2022/04/04 00:43:52;;;;;;;12.90;6.05;;;;;;;0.56;88.17;101795.59;5048463;28;20029;-67
2022/04/04 00:46:19;;;;;;;18.45;6.97;;;;;;;0.54;88.75;101792.22;5048742;28;20392;-67
2022/04/04 00:48:44;;;;;;;12.07;6.53;;;;;;;0.55;88.41;101794.75;5047462;28;20388;-67
2022/04/04 00:51:10;;;;;;;15.05;7.15;;;;;;;0.49;88.44;101775.97;5048905;28;20029;-67
2022/04/04 00:53:36;;;;;;;18.35;7.30;;;;;;;0.52;88.65;101792.31;5048821;28;20041;-66
2022/04/04 00:56:01;;;;;;;14.10;7.57;;;;;;;0.53;88.49;101785.31;5048884;28;20033;-67
2022/04/04 00:58:30;;;;;;;12.35;6.93;;;;;;;0.53;88.34;101780.06;5048691;28;20381;-67
2022/04/04 01:00:56;;;;;;;13.05;7.78;;;;;;;0.51;88.44;101774.06;5048798;28;20025;-67
2022/04/04 01:03:22;;;;;;;12.90;7.63;;;;;;;0.49;88.83;101771.53;5048701;28;20028;-67
2022/04/04 01:05:47;;;;;;;14.40;6.63;;;;;;;0.49;88.56;101770.72;5048774;28;20036;-67
2022/04/04 01:08:14;;;;;;;15.52;7.78;;;;;;;0.49;88.49;101763.66;5048819;28;20032;-67
2022/04/04 01:10:43;;;;;;;16.98;8.02;;;;;;;0.50;88.87;101761.88;5048309;28;20028;-67
2022/04/04 01:13:10;;;;;;;16.23;7.97;;;;;;;0.49;88.88;101762.84;5048742;28;20412;-67
2022/04/04 01:15:35;;;;;;;14.68;7.80;;;;;;;0.48;88.99;101756.75;5048224;28;20503;-67
2022/04/04 01:18:05;;;;;;;17.20;8.88;;;;;;;0.48;88.71;101759.38;5048525;28;20029;-67
2022/04/04 01:20:31;;;;;;;15.00;7.55;;;;;;;0.49;88.69;101747.09;5048421;28;20526;-67
2022/04/04 01:22:57;;;;;;;13.80;7.05;;;;;;;0.49;88.69;101742.69;5047316;28;20025;-67
2022/04/04 01:25:28;;;;;;;16.52;8.68;;;;;;;0.50;88.52;101741.75;5049601;28;20495;-67
2022/04/04 01:27:55;;;;;;;18.15;9.68;;;;;;;0.51;88.76;101732.09;5052291;28;20484;-67
2022/04/04 01:30:24;;;;;;;13.65;6.97;;;;;;;0.51;88.28;101726.84;5052122;28;20083;-67
2022/04/04 01:32:50;;;;;;;15.90;7.97;;;;;;;0.52;88.58;101723.25;5052089;28;20060;-67
2022/04/04 01:35:16;;;;;;;13.90;7.45;;;;;;;0.49;88.42;101721.69;5051971;28;20060;-67
2022/04/04 01:37:42;;;;;;;19.45;7.53;;;;;;;0.52;88.22;101715.38;5051781;28;20092;-67
2022/04/04 01:40:08;;;;;;;15.35;7.55;;;;;;;0.52;88.23;101710.13;5051802;28;20159;-67
2022/04/04 01:42:37;;;;;;;14.00;8.50;;;;;;;0.52;87.91;101700.47;5051070;28;20037;-67
2022/04/04 01:45:04;;;;;;;16.15;6.60;;;;;;;0.48;87.93;101683.28;5051412;28;20056;-67
2022/04/04 01:47:30;;;;;;;26.75;9.13;;;;;;;0.52;87.58;101697.84;5051823;28;20039;-67
2022/04/04 01:49:55;;;;;;;13.15;6.90;;;;;;;0.52;87.32;101683.88;5051818;28;20488;-67
2022/04/04 01:52:20;;;;;;;13.32;7.88;;;;;;;0.52;87.24;101681.25;5051368;28;20032;-67
2022/04/04 01:54:46;;;;;;;13.15;6.70;;;;;;;0.54;87.18;101676.75;5051636;28;20431;-67
2022/04/04 01:57:12;;;;;;;19.70;8.63;;;;;;;0.50;86.92;101659.53;5051282;28;20044;-67
2022/04/04 01:59:37;;;;;;;13.25;6.38;;;;;;;0.52;86.81;101650.59;5051519;28;20033;-67
2022/04/04 02:02:03;;;;;;;15.10;7.10;;;;;;;0.61;86.51;101664.84;5050203;28;20032;-67
2022/04/04 02:04:29;;;;;;;12.43;6.90;;;;;;;0.62;86.82;101666.53;5049941;28;20033;-67
2022/04/04 02:06:54;;;;;;;15.00;7.78;;;;;;;0.64;86.21;101651.50;5049994;28;20994;-67
2022/04/04 02:09:20;;;;;;;14.52;6.93;;;;;;;0.66;86.21;101649.63;5051290;28;20029;-67
2022/04/04 02:11:45;;;;;;;13.98;6.90;;;;;;;0.67;85.64;101643.41;5050817;28;20040;-67
2022/04/04 02:14:10;;;;;;;13.50;7.07;;;;;;;0.71;86.05;101638.75;5051196;28;20033;-67
2022/04/04 02:16:36;;;;;;;15.63;6.38;;;;;;;0.73;85.69;101634.22;5050899;28;20032;-67
2022/04/04 02:19:01;;;;;;;15.45;7.30;;;;;;;0.77;85.31;101628.66;5050919;28;20075;-67
2022/04/04 02:21:27;;;;;;;13.52;7.05;;;;;;;0.77;85.23;101625.19;5049606;28;20027;-67
2022/04/04 02:23:52;;;;;;;13.07;7.63;;;;;;;0.79;85.17;101626.75;5051055;28;20029;-67
2022/04/04 02:26:18;;;;;;;10.07;5.60;;;;;;;0.85;84.85;101618.41;5050887;28;20598;-67
2022/04/04 02:28:44;;;;;;;26.20;7.05;;;;;;;0.88;84.95;101612.91;5050954;28;20119;-67
2022/04/04 02:31:09;;;;;;;12.65;6.18;;;;;;;0.93;84.60;101603.88;5051082;28;20067;-67
2022/04/04 02:33:35;;;;;;;18.08;8.02;;;;;;;0.99;84.31;101601.59;5050480;28;20071;-67
2022/04/04 02:36:00;;;;;;;13.32;7.18;;;;;;;1.08;84.22;101600.94;5050818;28;20039;-67
2022/04/04 02:38:27;;;;;;;11.38;6.57;;;;;;;1.14;83.99;101588.28;5049806;28;20395;-67
2022/04/04 02:40:54;;;;;;;12.32;6.13;;;;;;;1.18;84.01;101592.31;5050558;28;20039;-67
2022/04/04 02:43:21;;;;;;;13.15;6.28;;;;;;;1.20;84.00;101588.63;5050368;28;20498;-67
2022/04/04 02:45:46;;;;;;;12.00;6.55;;;;;;;1.24;83.75;101590.09;5050263;28;20049;-67
2022/04/04 02:48:12;;;;;;;11.20;5.07;;;;;;;1.28;83.67;101577.53;5050458;28;20048;-67
2022/04/04 02:50:37;;;;;;;16.10;6.60;;;;;;;1.31;83.59;101578.16;5050315;28;20047;-67
2022/04/04 02:53:03;;;;;;;12.10;5.85;;;;;;;1.34;83.72;101570.97;5050122;28;20068;-67
2022/04/04 02:58:14;;;;;;;13.70;5.78;;;;;;;1.41;83.08;101559.03;5050478;28;20138;-67
2022/04/04 03:00:40;;;;;;;11.13;6.00;;;;;;;1.39;83.33;101546.03;5050458;28;20060;-67
2022/04/04 03:03:05;;;;;;;9.88;5.20;;;;;;;1.42;83.51;101551.03;5050446;28;20463;-68
2022/04/04 03:05:31;;;;;;;9.70;5.97;;;;;;;1.46;83.33;101541.94;5050301;28;20120;-68
2022/04/04 03:07:56;;;;;;;9.90;5.93;;;;;;;1.48;83.10;101541.84;5050246;28;20033;-67
2022/04/04 03:10:22;;;;;;;9.23;5.07;;;;;;;1.48;83.39;101526.06;5050090;28;20099;-67
2022/04/04 03:12:49;;;;;;;10.52;5.30;;;;;;;1.50;83.39;101527.63;5050231;28;20033;-67
2022/04/04 03:15:21;;;;;;;9.90;5.22;;;;;;;1.49;83.42;101523.31;5050137;28;20029;-67
2022/04/04 03:17:49;;;;;;;12.93;6.13;;;;;;;1.49;83.47;101512.81;5049992;28;20052;-67
2022/04/04 03:20:16;;;;;;;13.27;5.82;;;;;;;1.51;83.45;101512.66;5050054;28;20053;-68
2022/04/04 03:22:44;;;;;;;12.27;5.38;;;;;;;1.50;83.32;101514.47;5049898;28;20448;-67
2022/04/04 03:25:11;;;;;;;12.18;5.60;;;;;;;1.53;83.36;101508.13;5049958;28;20024;-67
2022/04/04 03:27:38;;;;;;;9.75;5.05;;;;;;;1.52;83.25;101502.06;5050003;28;20103;-67
2022/04/04 03:30:08;;;;;;;10.95;4.97;;;;;;;1.54;83.74;101496.66;5050025;28;20392;-67
2022/04/04 03:32:34;;;;;;;11.93;5.65;;;;;;;1.52;83.73;101488.91;5049306;28;20028;-67
2022/04/04 03:35:01;;;;;;;16.27;7.07;;;;;;;1.56;84.01;101493.91;5049721;28;20021;-67
2022/04/04 03:37:27;;;;;;;13.57;6.45;;;;;;;1.53;83.75;101480.06;5049710;28;20538;-67
2022/04/04 03:39:53;;;;;;;13.52;5.70;;;;;;;1.58;83.75;101477.06;5049807;28;20032;-67
2022/04/04 03:42:19;;;;;;;14.88;6.50;;;;;;;1.58;84.24;101470.97;5049740;28;20029;-67
2022/04/04 03:44:45;;;;;;;14.30;6.47;;;;;;;1.59;84.05;101468.22;5049138;28;20053;-67
2022/04/04 03:47:10;;;;;;;14.32;6.28;;;;;;;1.60;83.95;101471.66;5049139;28;20025;-67
2022/04/04 03:49:36;;;;;;;10.73;5.80;;;;;;;1.61;84.31;101463.66;5049309;28;20024;-67
2022/04/04 03:52:02;;;;;;;12.93;6.38;;;;;;;1.54;84.14;101449.34;5049541;28;20515;-67
2022/04/04 03:54:28;;;;;;;14.80;6.82;;;;;;;1.59;84.31;101447.16;5049465;28;20043;-67
2022/04/04 03:56:53;;;;;;;11.40;5.43;;;;;;;1.66;84.18;101451.00;5049401;28;20024;-67
2022/04/04 03:59:18;;;;;;;10.68;5.43;;;;;;;1.66;84.08;101440.47;5049248;28;20354;-67
2022/04/04 04:01:44;;;;;;;13.88;6.13;;;;;;;1.68;84.03;101438.56;5048059;28;20499;-67
2022/04/04 04:04:09;;;;;;;9.50;4.82;;;;;;;1.69;84.03;101436.75;5047839;28;20389;-67
2022/04/04 04:06:35;;;;;;;11.02;5.97;;;;;;;1.66;84.12;101429.13;5049386;28;20036;-67
2022/04/04 04:09:01;;;;;;;13.65;6.63;;;;;;;1.70;84.07;101420.00;5049210;28;20024;-67
2022/04/04 04:11:28;;;;;;;9.23;5.38;;;;;;;1.66;84.33;101415.97;5049244;28;20033;-67
2022/04/04 04:13:54;;;;;;;13.38;5.63;;;;;;;1.70;84.27;101425.28;5049166;28;20025;-67
2022/04/04 04:16:20;;;;;;;10.52;5.72;;;;;;;1.69;84.26;101416.56;5048917;28;20033;-67
2022/04/04 04:18:45;;;;;;;12.48;5.13;;;;;;;1.66;84.44;101405.47;5048958;28;20048;-67
2022/04/04 04:21:12;;;;;;;13.68;5.30;;;;;;;1.69;84.68;101407.84;5049381;28;20047;-67
2022/04/04 04:23:38;;;;;;;13.20;6.05;;;;;;;1.73;84.62;101399.59;5049040;28;20043;-67
2022/04/04 04:26:05;;;;;;;14.07;6.80;;;;;;;1.74;84.79;101395.16;5049031;28;20673;-67
2022/04/04 04:28:31;;;;;;;16.38;6.30;;;;;;;1.73;84.74;101389.06;5049055;28;20041;-67
2022/04/04 04:30:56;;;;;;;11.77;5.85;;;;;;;1.77;84.92;101388.81;5049075;28;20044;-67
2022/04/04 04:33:22;;;;;;;11.65;5.72;;;;;;;1.77;84.87;101379.13;5049012;28;20037;-67
2022/04/04 04:35:48;;;;;;;12.15;6.45;;;;;;;1.80;84.54;101389.38;5048959;28;20495;-67
2022/04/04 04:38:13;;;;;;;8.25;6.28;;;;;;;1.81;84.47;101371.78;5048760;28;20572;-68
2022/04/04 04:40:39;;;;;;;10.65;4.57;;;;;;;1.84;84.59;101368.94;5049095;28;20044;-67
2022/04/04 04:43:05;;;;;;;14.27;6.30;;;;;;;1.83;84.77;101362.00;5048986;28;20435;-67
2022/04/04 04:45:30;;;;;;;17.92;7.15;;;;;;;1.81;84.79;101356.88;5048883;28;20444;-67
2022/04/04 04:47:55;;;;;;;20.70;6.72;;;;;;;1.82;84.56;101345.38;5048361;28;20033;-67
2022/04/04 04:50:22;;;;;;;11.13;5.28;;;;;;;1.84;84.71;101340.00;5048534;28;20021;-67
2022/04/04 04:52:49;;;;;;;11.52;6.00;;;;;;;1.86;84.79;101332.81;5048681;28;20025;-67
2022/04/04 04:55:17;;;;;;;16.20;7.95;;;;;;;1.89;85.19;101336.03;5048653;28;20032;-67
2022/04/04 04:57:43;;;;;;;11.70;5.80;;;;;;;1.88;84.68;101328.25;5048594;28;20446;-67
2022/04/04 05:00:13;;;;;;;14.75;6.68;;;;;;;1.90;85.18;101324.53;5049361;28;20487;-67
2022/04/04 05:02:39;;;;;;;15.15;6.85;;;;;;;1.91;84.86;101328.84;5052509;28;20090;-67
2022/04/04 05:05:05;;;;;;;12.85;6.18;;;;;;;1.94;85.17;101320.69;5052451;28;20037;-67
2022/04/04 05:07:31;;;;;;;14.82;6.93;;;;;;;1.96;85.11;101313.53;5051243;28;20029;-67
2022/04/04 05:09:56;;;;;;;15.68;6.15;;;;;;;1.98;85.35;101319.47;5052544;28;20037;-67
2022/04/04 05:12:22;;;;;;;11.88;6.22;;;;;;;2.00;85.08;101310.63;5052115;28;20090;-68
2022/04/04 05:14:48;;;;;;;12.70;6.45;;;;;;;2.03;85.25;101307.72;5052244;28;20029;-68
2022/04/04 05:17:13;;;;;;;13.40;6.70;;;;;;;2.07;84.92;101295.97;5051888;28;20041;-68
2022/04/04 05:19:39;;;;;;;12.52;6.75;;;;;;;2.13;85.25;101298.91;5052195;28;20043;-68
2022/04/04 05:22:04;;;;;;;16.70;7.53;;;;;;;2.18;84.98;101294.09;5052147;28;20472;-68
2022/04/04 05:24:30;;;;;;;14.60;6.75;;;;;;;2.21;84.63;101284.28;5052178;28;20477;-68
2022/04/04 05:26:56;;;;;;;16.77;7.65;;;;;;;2.28;84.71;101283.63;5052049;28;20124;-68
2022/04/04 05:29:22;;;;;;;12.77;6.85;;;;;;;2.33;84.56;101277.94;5052018;28;20488;-68
2022/04/04 05:31:47;;;;;;;15.73;7.25;;;;;;;2.34;84.85;101271.75;5051899;28;20544;-67
2022/04/04 05:34:13;;;;;;;12.65;6.25;;;;;;;2.40;84.60;101261.50;5052000;28;20021;-68
2022/04/04 05:36:39;;;;;;;17.98;7.38;;;;;;;2.45;84.92;101255.84;5051871;28;20057;-68
2022/04/04 05:39:07;;;;;;;14.85;7.03;;;;;;;2.50;84.24;101258.06;5051921;28;20150;-68
2022/04/04 05:41:34;;;;;;;16.30;7.50;;;;;;;2.51;84.16;101255.28;5051868;28;20033;-68
2022/04/04 05:44:00;;;;;;;13.70;6.55;;;;;;;2.57;84.32;101248.69;5051766;28;20060;-68
2022/04/04 05:46:26;;;;;;;14.65;7.53;;;;;;;2.60;84.62;101243.97;5051511;28;20087;-68
2022/04/04 05:48:51;;;;;;;17.42;8.35;;;;;;;2.63;84.19;101237.59;5051320;28;20029;-68
2022/04/04 05:51:17;;;;;;;15.02;7.65;;;;;;;2.68;84.48;101237.19;5051225;28;20399;-68
2022/04/04 05:53:43;;;;;;;16.88;6.57;;;;;;;2.71;84.38;101229.84;5051621;28;20021;-68
2022/04/04 05:56:09;;;;;;;14.70;6.90;;;;;;;2.77;83.56;101221.41;5051642;28;20499;-68
2022/04/04 05:58:36;;;;;;;16.50;7.55;;;;;;;2.83;83.67;101225.31;5051027;28;20033;-67
2022/04/04 06:01:02;;;;;;;15.30;7.82;;;;;;;2.91;83.74;101225.44;5051326;28;20025;-68
2022/04/04 06:03:28;;;;;;;18.90;8.52;;;;;;;2.98;83.52;101215.19;5051282;28;20032;-68
2022/04/04 06:05:54;;;;;;;13.32;6.53;;;;;;;3.00;83.01;101214.06;5049932;28;20029;-68
2022/04/04 06:08:20;;;;;;;14.68;7.05;;;;;;;3.04;82.86;101202.28;5051281;28;20043;-68
2022/04/04 06:10:46;;;;;;;15.90;6.53;;;;;;;3.05;83.09;101200.50;5051161;28;20075;-68
2022/04/04 06:13:20;;;;;;;14.88;6.68;;;;;;;3.07;82.44;101193.28;5051262;28;20033;-68
2022/04/04 06:15:47;;;;;;;14.55;7.28;;;;;;;3.12;82.62;101192.84;5049829;28;20037;-68
2022/04/04 06:18:13;;;;;;;18.15;8.75;;;;;;;3.17;81.94;101193.25;5050774;28;20032;-67
2022/04/04 06:20:39;;;;;;;14.93;6.95;;;;;;;3.22;81.76;101197.16;5051062;28;20617;-68
2022/04/04 06:23:05;;;;;;;15.68;6.32;;;;;;;3.28;81.93;101190.50;5050997;28;20513;-68
2022/04/04 06:25:31;;;;;;;16.33;8.13;;;;;;;3.37;82.20;101184.34;5050698;28;20028;-68
2022/04/04 06:27:58;;;;;;;15.90;7.65;;;;;;;3.47;81.08;101182.53;5050313;28;20120;-68
2022/04/04 06:30:24;;;;;;;16.15;7.15;;;;;;;3.61;81.05;101177.78;5049531;28;20380;-68
2022/04/04 06:32:50;;;;;;;15.13;7.57;;;;;;;3.74;80.51;101157.19;5050812;28;20021;-68
2022/04/04 06:35:15;;;;;;;12.73;6.82;;;;;;;3.83;79.57;101169.53;5050913;28;20159;-68
2022/04/04 06:37:42;;;;;;;17.98;7.95;;;;;;;3.82;80.22;101161.75;5050840;28;20130;-68
2022/04/04 06:40:08;;;;;;;15.20;7.43;;;;;;;3.92;79.09;101165.19;5050772;28;20832;-68
2022/04/04 06:42:39;;;;;;;14.35;8.57;;;;;;;3.87;79.36;101160.34;5050723;28;20021;-68
2022/04/04 06:45:06;;;;;;;13.50;6.97;;;;;;;3.91;79.39;101145.88;5050495;28;20049;-68
2022/04/04 06:47:32;;;;;;;16.70;7.30;;;;;;;3.97;78.19;101151.56;5050466;28;20479;-68
2022/04/04 06:49:58;;;;;;;15.13;7.57;;;;;;;3.98;78.83;101138.19;5050443;28;20052;-68
2022/04/04 06:52:24;;;;;;;15.52;6.78;;;;;;;4.12;78.26;101144.81;5048726;28;20457;-68
2022/04/04 06:54:49;;;;;;;16.73;8.25;;;;;;;4.15;78.34;101141.88;5050308;28;20037;-68
2022/04/04 06:57:16;;;;;;;16.10;8.43;;;;;;;4.16;77.33;101136.44;5050263;28;20044;-68
2022/04/04 06:59:42;;;;;;;15.50;7.40;;;;;;;4.20;78.11;101126.44;5050256;28;20124;-68
2022/04/04 07:02:08;;;;;;;17.58;9.48;;;;;;;4.17;77.96;101126.72;5050372;28;20033;-68
2022/04/04 07:04:34;;;;;;;14.82;7.68;;;;;;;4.20;77.82;101115.88;5050092;28;20039;-68
2022/04/04 07:06:59;;;;;;;14.25;7.40;;;;;;;4.31;77.57;101106.91;5050148;28;20028;-67
2022/04/04 07:09:25;;;;;;;13.98;7.13;;;;;;;4.41;77.32;101110.31;5050253;28;20021;-68
2022/04/04 07:11:53;;;;;;;13.57;6.70;;;;;;;4.52;77.03;101094.22;5050104;28;20029;-68
2022/04/04 07:14:18;;;;;;;15.90;7.82;;;;;;;4.57;76.80;101096.44;5050123;28;20029;-68
2022/04/04 07:16:44;;;;;;;10.55;6.28;;;;;;;4.69;76.84;101091.72;5048443;28;20434;-68
2022/04/04 07:19:14;;;;;;;12.75;6.63;;;;;;;4.71;76.11;101082.66;5049754;28;20453;-67
2022/04/04 07:21:39;;;;;;;15.52;7.68;;;;;;;4.76;75.99;101079.56;5050081;28;20031;-68
2022/04/04 07:24:05;;;;;;;15.52;8.10;;;;;;;4.79;75.50;101079.25;5044966;28;20379;-70
2022/04/04 07:26:31;;;;;;;13.88;8.23;;;;;;;4.76;75.92;101063.72;5045424;28;20041;-70
2022/04/04 07:28:56;;;;;;;12.73;7.50;;;;;;;4.86;75.06;101063.66;5046874;28;20013;-68
2022/04/04 07:31:22;;;;;;;18.05;8.25;;;;;;;4.91;75.22;101066.66;5049765;28;20033;-68
2022/04/04 07:33:47;;;;;;;12.93;6.90;;;;;;;4.96;75.29;101067.03;5049708;28;20035;-68
2022/04/04 07:36:13;;;;;;;10.80;5.60;;;;;;;5.01;75.00;101059.47;5049714;28;20475;-68
2022/04/04 07:38:38;;;;;;;15.05;7.85;;;;;;;5.08;75.09;101062.28;5049629;28;20460;-69
2022/04/04 07:41:03;;;;;;;14.32;6.72;;;;;;;5.12;74.20;101045.16;5049629;28;20120;-69
2022/04/04 07:43:29;;;;;;;14.43;6.85;;;;;;;5.15;74.03;101052.75;5049580;28;20052;-68
2022/04/04 07:45:55;;;;;;;11.02;6.85;;;;;;;5.20;74.40;101059.25;5049333;28;20052;-69
2022/04/04 07:48:20;;;;;;;15.68;6.55;;;;;;;5.25;73.55;101048.19;5049492;28;20468;-69
2022/04/04 07:50:45;;;;;;;14.82;6.68;;;;;;;5.29;74.24;101036.31;5049354;28;20033;-68
2022/04/04 07:53:12;;;;;;;12.07;6.43;;;;;;;5.37;73.04;101032.88;5048890;28;20045;-69
2022/04/04 07:55:38;;;;;;;12.65;7.25;;;;;;;5.37;73.37;101032.88;5049109;28;20369;-69
2022/04/04 07:58:04;;;;;;;13.98;6.93;;;;;;;5.44;73.34;101023.31;5049238;28;20039;-69
2022/04/04 08:00:29;;;;;;;10.13;5.55;;;;;;;5.49;72.73;101011.28;5049466;28;20416;-69
2022/04/04 08:02:55;;;;;;;13.57;6.47;;;;;;;5.50;73.11;101009.44;5049343;28;20120;-69
2022/04/04 08:05:21;;;;;;;14.32;6.68;;;;;;;5.55;73.17;101007.16;5049304;28;20035;-69
2022/04/04 08:07:48;;;;;;;15.02;6.95;;;;;;;5.60;72.21;101007.50;5049262;28;20449;-71
2022/04/04 08:10:16;;;;;;;12.73;6.55;;;;;;;5.62;72.36;101007.34;5049253;28;20021;-69
2022/04/04 08:12:41;;;;;;;14.05;8.40;;;;;;;5.68;72.97;100999.59;5049164;28;20025;-68
2022/04/04 08:15:08;;;;;;;14.63;6.30;;;;;;;5.70;72.75;100989.69;5049138;28;20036;-68
2022/04/04 08:17:34;;;;;;;17.17;6.95;;;;;;;5.79;72.85;100989.69;5048791;28;20120;-68
2022/04/04 08:19:59;;;;;;;12.13;6.78;;;;;;;5.83;72.50;100978.63;5049120;28;20139;-68
2022/04/04 08:22:25;;;;;;;11.65;6.70;;;;;;;5.84;72.72;100980.31;5048991;28;20032;-68
2022/04/04 08:24:50;;;;;;;15.73;7.18;;;;;;;5.85;73.14;100963.44;5048946;28;20547;-68
2022/04/04 08:27:16;;;;;;;14.50;6.53;;;;;;;5.93;72.32;100965.25;5048952;28;20041;-67
2022/04/04 08:29:42;;;;;;;15.88;6.70;;;;;;;6.01;71.88;100956.53;5049004;28;20028;-69
2022/04/04 08:32:08;;;;;;;18.52;7.68;;;;;;;6.04;72.19;100954.38;5048903;28;20025;-68
2022/04/04 08:34:33;;;;;;;13.70;6.70;;;;;;;6.19;70.90;100943.13;5049044;28;20043;-68
2022/04/04 08:36:58;;;;;;;14.60;7.07;;;;;;;6.28;71.61;100947.44;5052844;28;20028;-68
2022/04/04 08:39:24;;;;;;;13.38;7.65;;;;;;;6.36;71.46;100939.47;5053007;28;20404;-68
2022/04/04 08:41:49;;;;;;;13.45;6.68;;;;;;;6.39;70.23;100938.31;5053068;28;20063;-68
2022/04/04 08:44:15;;;;;;;18.92;7.18;;;;;;;6.35;69.94;100924.59;5052967;28;20032;-68
2022/04/04 08:46:42;;;;;;;14.55;7.00;;;;;;;6.43;70.49;100915.81;5052783;28;20420;-69
2022/04/04 08:49:08;;;;;;;10.70;5.82;;;;;;;6.50;69.84;100922.91;5052682;28;20017;-68
2022/04/04 08:51:35;;;;;;;13.38;6.65;;;;;;;6.58;69.67;100916.78;5052885;28;20079;-67
2022/04/04 08:54:01;;;;;;;13.27;6.15;;;;;;;6.61;70.13;100915.63;5052496;28;20039;-67
2022/04/04 08:56:27;;;;;;;14.32;6.25;;;;;;;6.62;68.94;100920.72;5052549;28;20029;-67
2022/04/04 08:58:54;;;;;;;12.32;5.85;;;;;;;6.65;68.76;100916.91;5052718;28;20041;-67
2022/04/04 09:01:21;;;;;;;18.98;6.70;;;;;;;6.64;68.11;100897.53;5052633;28;20526;-67
2022/04/04 09:04:11;;;;;;;17.27;7.05;;;;;;;6.62;68.45;100904.00;5052603;28;20077;-68
2022/04/04 09:06:53;;;;;;;14.63;6.63;;;;;;;6.60;68.51;100906.81;5051700;28;20460;-68
2022/04/04 09:09:21;;;;;;;12.63;5.93;;;;;;;6.57;68.62;100893.91;5052317;28;20040;-68
2022/04/04 09:12:08;;;;;;;11.13;6.00;;;;;;;6.53;68.97;100895.25;5052314;28;20021;-68
2022/04/04 09:14:46;;;;;;;15.05;6.43;;;;;;;6.50;69.56;100899.06;5052413;28;20115;-68
2022/04/04 09:17:14;;;;;;;13.85;7.63;;;;;;;6.42;70.24;100880.53;5052160;28;20025;-68
2022/04/04 09:19:40;;;;;;;14.52;5.90;;;;;;;6.41;69.80;100884.16;5052158;28;20112;-68
2022/04/04 09:22:08;;;;;;;13.23;7.15;;;;;;;6.43;69.94;100882.19;5052437;28;20111;-68
2022/04/04 09:24:55;;;;;;;13.88;6.97;;;;;;;6.44;70.19;100875.88;5052077;28;20021;-67
2022/04/04 09:27:26;;;;;;;13.05;6.28;;;;;;;6.35;70.24;100866.31;5051953;28;20961;-67
2022/04/04 09:29:57;;;;;;;10.77;5.93;;;;;;;6.34;71.70;100870.78;5051315;28;20027;-67
2022/04/04 09:32:43;;;;;;;18.67;6.23;;;;;;;6.37;72.29;100872.28;5045459;28;20029;-67
2022/04/04 09:35:12;;;;;;;14.82;6.85;;;;;;;6.34;72.83;100862.84;5039679;28;20562;-67
2022/04/04 09:37:41;;;;;;;13.23;6.55;;;;;;;6.31;74.06;100860.53;5061625;28;20041;-67
2022/04/04 09:40:13;;;;;;;13.15;7.30;;;;;;;6.32;74.54;100864.00;5039639;28;20106;-67
2022/04/04 09:42:39;;;;;;;13.10;6.90;;;;;;;6.29;74.78;100859.06;5039754;28;20484;-67
2022/04/04 09:45:06;;;;;;;14.40;7.50;;;;;;;6.20;75.94;100855.56;5038859;28;20048;-67
2022/04/04 09:47:50;;;;;;;14.45;7.05;;;;;;;6.14;77.18;100861.53;5036772;28;20488;-67
2022/04/04 09:50:44;;;;;;;14.60;8.07;;;;;;;6.03;76.77;100849.47;5038693;28;20018;-67
2022/04/04 09:53:19;;;;;;;14.88;7.50;;;;;;;5.94;77.61;100853.09;5038354;28;20021;-67
2022/04/04 09:55:56;;;;;;;14.43;7.97;;;;;;;5.95;77.81;100860.06;5038723;28;20396;-67
2022/04/04 09:58:24;;;;;;;14.05;6.97;;;;;;;5.95;78.46;100853.94;5038229;28;20419;-69
2022/04/04 10:00:49;;;;;;;13.55;7.50;;;;;;;5.90;77.06;100839.38;5037592;28;20061;-68
2022/04/04 10:03:17;;;;;;;11.45;6.53;;;;;;;5.88;77.48;100846.63;5045595;28;20056;-68
2022/04/04 10:05:46;;;;;;;16.10;7.72;;;;;;;5.84;78.70;100845.31;5044701;28;20025;-68
2022/04/04 10:08:17;;;;;;;15.40;7.00;;;;;;;5.79;79.99;100834.41;5046550;28;20028;-68
2022/04/04 10:10:43;;;;;;;14.50;7.63;;;;;;;5.74;80.18;100838.53;5050211;28;20029;-68
2022/04/04 10:13:11;;;;;;;20.65;9.75;;;;;;;5.63;81.45;100824.66;5048746;28;20033;-68
2022/04/04 10:15:37;;;;;;;16.15;7.53;;;;;;;5.62;82.00;100832.75;5048812;28;20098;-68
2022/04/04 10:18:03;;;;;;;14.02;7.38;;;;;;;5.65;82.59;100833.22;5049952;28;20041;-68
2022/04/04 10:20:29;;;;;;;13.02;7.15;;;;;;;5.71;82.40;100827.31;5050119;28;20055;-68
2022/04/04 10:22:56;;;;;;;13.43;7.47;;;;;;;5.78;82.58;100816.84;5050162;28;20396;-68
2022/04/04 10:25:25;;;;;;;14.93;8.25;;;;;;;5.72;82.66;100794.53;5049771;28;20079;-68
2022/04/04 10:27:52;;;;;;;15.30;8.23;;;;;;;5.83;83.20;100814.53;5049625;28;20032;-68
2022/04/04 10:30:18;;;;;;;14.73;8.10;;;;;;;5.91;82.34;100813.72;5049957;28;20052;-68
2022/04/04 10:32:53;;;;;;;15.15;8.52;;;;;;;5.97;83.54;100806.94;5049876;28;20124;-68
2022/04/04 10:35:21;;;;;;;15.88;6.80;;;;;;;6.03;83.28;100812.41;5049806;28;20037;-68
2022/04/04 10:37:47;;;;;;;13.38;7.72;;;;;;;6.05;83.73;100805.13;5049280;28;20025;-68
2022/04/04 10:40:38;;;;;;;13.23;7.60;;;;;;;6.07;83.82;100802.31;5047157;28;20040;-68
2022/04/04 10:43:15;;;;;;;16.55;8.27;;;;;;;6.01;84.78;100814.41;5047367;28;20483;-68
2022/04/04 10:45:52;;;;;;;13.50;7.57;;;;;;;5.91;85.22;100814.53;4956261;28;2682253;-68
2022/04/04 10:48:19;;;;;;;15.30;8.02;;;;;;;5.84;85.70;100808.28;5050614;28;20428;-68
2022/04/04 10:50:45;;;;;;;17.27;7.93;;;;;;;5.80;86.81;100798.19;5050436;28;20460;-68
2022/04/04 10:53:11;;;;;;;20.58;8.73;;;;;;;5.80;86.66;100795.53;5050481;28;20082;-68
2022/04/04 10:55:36;;;;;;;15.65;7.22;;;;;;;5.78;87.24;100806.28;5050264;28;20036;-68
2022/04/04 10:58:16;;;;;;;15.18;8.05;;;;;;;5.78;87.47;100793.03;5049215;28;20571;-68
2022/04/04 11:00:55;;;;;;;14.95;7.85;;;;;;;5.75;88.44;100777.50;5050314;28;20045;-69
2022/04/04 11:03:31;;;;;;;16.25;8.52;;;;;;;5.67;88.93;100786.28;5050472;28;20071;-68
2022/04/04 11:09:00;;;;;;;15.88;8.00;;;;;;;5.59;91.04;100767.75;5050625;28;20395;-68
2022/04/04 11:11:50;;;;;;;16.17;9.20;;;;;;;5.56;91.31;100773.38;5050179;28;20060;-69
2022/04/04 11:14:39;;;;;;;15.25;7.90;;;;;;;5.60;91.70;100742.94;5050233;28;20028;-69
2022/04/04 11:17:23;;;;;;;15.45;8.00;;;;;;;5.61;91.62;100760.50;5047145;28;20036;-69
2022/04/04 11:19:55;;;;;;;12.63;7.95;;;;;;;5.61;90.49;100763.13;5049999;28;20083;-69
2022/04/04 11:22:23;;;;;;;13.15;6.32;;;;;;;5.57;91.33;100755.69;5049886;28;20033;-69
2022/04/04 11:24:51;;;;;;;11.82;6.20;;;;;;;5.53;91.54;100747.28;5049946;28;20028;-68
2022/04/04 11:27:18;;;;;;;15.75;6.82;;;;;;;5.52;91.53;100732.38;5049536;28;20099;-70
2022/04/04 11:29:44;;;;;;;13.93;7.25;;;;;;;5.58;92.69;100759.97;5049805;28;20036;-68
2022/04/04 11:32:16;;;;;;;11.90;6.70;;;;;;;5.58;91.53;100744.97;5049826;28;20104;-69